Time;durP1;ratioP1;P1;durP2;ratioP2;P2;SDS_P1;SDS_P2;PMS_P1;PMS_P2;Temp;Humidity;BMP_temperature;BMP_pressure;BME280_temperature;BME280_humidity;BME280_pressure;Samples;Min_cycle;Max_cycle;Signal;HPM_P1;HPM_P2
2022/07/27 00:01:13;;;;;;;2.17;0.30;;;25.00;46.40;24.20;101510.00;;;;5028768;28;20045;-65
2022/07/27 00:03:59;;;;;;;1.00;0.40;;;25.00;46.40;24.20;101510.00;;;;5013844;28;20404;-65
2022/07/27 00:06:45;;;;;;;1.05;0.40;;;25.00;46.40;24.20;101508.00;;;;5025527;28;20108;-66
2022/07/27 00:09:31;;;;;;;0.35;0.30;;;25.00;46.50;24.20;101507.00;;;;5026129;28;20461;-65
2022/07/27 00:12:17;;;;;;;0.50;0.22;;;25.00;46.50;24.20;101518.00;;;;5028708;28;20030;-66
2022/07/27 00:15:04;;;;;;;0.70;0.25;;;25.00;46.50;24.20;101511.00;;;;5026969;28;20037;-66
2022/07/27 00:17:50;;;;;;;0.47;0.20;;;25.00;46.50;24.20;101516.00;;;;5025840;28;20411;-66
2022/07/27 00:20:36;;;;;;;1.10;0.60;;;25.00;46.50;24.20;101514.00;;;;5025918;28;20470;-66
2022/07/27 00:23:22;;;;;;;1.58;0.30;;;25.00;46.60;24.20;101527.00;;;;5029603;28;20434;-66
2022/07/27 00:26:08;;;;;;;0.98;0.57;;;25.00;46.60;24.10;101516.00;;;;5024174;28;20060;-66
2022/07/27 00:28:54;;;;;;;0.65;0.30;;;25.00;46.60;24.10;101518.00;;;;5024029;28;20124;-66
2022/07/27 00:31:40;;;;;;;0.45;0.20;;;24.90;46.60;24.10;101517.00;;;;5031112;28;20033;-66
2022/07/27 00:34:26;;;;;;;1.15;0.40;;;24.90;46.60;24.10;101517.00;;;;5028586;28;20466;-66
2022/07/27 00:37:12;;;;;;;1.25;0.40;;;24.90;46.60;24.10;101521.00;;;;5028620;28;20465;-66
2022/07/27 00:39:58;;;;;;;1.42;0.30;;;24.90;46.70;24.10;101516.00;;;;5025281;28;20068;-66
2022/07/27 00:42:44;;;;;;;1.27;0.35;;;24.90;46.70;24.10;101510.00;;;;5024084;28;20045;-65
2022/07/27 00:45:31;;;;;;;0.55;0.30;;;24.90;46.70;24.10;101520.00;;;;5029740;28;20048;-66
2022/07/27 00:48:17;;;;;;;1.52;0.43;;;24.80;46.70;24.10;101513.00;;;;5029284;28;20045;-66
2022/07/27 00:51:03;;;;;;;1.10;0.30;;;24.90;46.80;24.10;101520.00;;;;5026397;28;20033;-65
2022/07/27 00:53:51;;;;;;;0.30;0.20;;;24.90;46.80;24.10;101517.00;;;;5013898;28;20049;-65
2022/07/27 00:56:37;;;;;;;1.67;0.40;;;24.80;46.80;24.00;101510.00;;;;5024017;28;20403;-65
2022/07/27 00:59:23;;;;;;;1.40;0.30;;;24.90;46.80;24.00;101512.00;;;;5027834;28;20056;-66
2022/07/27 01:02:09;;;;;;;0.85;0.35;;;24.80;46.80;24.00;101512.00;;;;4999332;28;20490;-66
2022/07/27 01:04:55;;;;;;;0.43;0.28;;;24.80;46.80;24.00;101514.00;;;;5025760;28;20045;-65
2022/07/27 01:07:41;;;;;;;1.02;0.40;;;24.80;46.80;24.00;101521.00;;;;5022768;28;20401;-66
2022/07/27 01:10:27;;;;;;;1.27;0.40;;;24.80;46.80;24.00;101514.00;;;;5024713;28;20088;-65
2022/07/27 01:13:15;;;;;;;2.10;0.47;;;24.80;46.80;24.00;101507.00;;;;5029950;28;20063;-66
2022/07/27 01:16:04;;;;;;;1.58;0.30;;;24.80;46.80;24.00;101502.00;;;;5027981;28;20076;-66
2022/07/27 01:18:50;;;;;;;0.75;0.40;;;24.80;47.50;24.00;101503.00;;;;5013130;28;20415;-66
2022/07/27 01:21:37;;;;;;;1.00;0.35;;;24.80;46.80;24.00;101508.00;;;;5026288;28;20518;-65
2022/07/27 01:24:23;;;;;;;0.60;0.32;;;24.70;46.80;24.00;101502.00;;;;5027676;28;20216;-66
2022/07/27 01:27:09;;;;;;;0.98;0.30;;;24.80;46.80;24.00;101504.00;;;;5025890;28;20046;-65
2022/07/27 01:29:55;;;;;;;0.43;0.38;;;24.80;46.90;24.00;101505.00;;;;5025266;28;20041;-65
2022/07/27 01:32:41;;;;;;;0.75;0.47;;;24.70;46.80;24.00;101504.00;;;;5027293;28;20037;-66
2022/07/27 01:35:28;;;;;;;0.47;0.22;;;24.70;46.80;24.00;101502.00;;;;5028721;28;20312;-66
2022/07/27 01:38:14;;;;;;;0.28;0.20;;;24.80;46.90;23.90;101506.00;;;;5028144;28;20453;-65
2022/07/27 01:41:00;;;;;;;1.83;0.30;;;24.70;46.80;23.90;101506.00;;;;5026185;28;20049;-65
2022/07/27 01:43:46;;;;;;;0.57;0.30;;;24.80;46.90;23.90;101504.00;;;;5023081;28;20550;-66
2022/07/27 01:46:32;;;;;;;0.90;0.32;;;24.70;46.80;23.90;101498.00;;;;5026424;28;20049;-65
2022/07/27 01:49:18;;;;;;;0.85;0.30;;;24.70;46.90;23.90;101505.00;;;;5027079;28;20161;-66
2022/07/27 01:52:05;;;;;;;0.50;0.40;;;24.70;46.90;23.90;101507.00;;;;5009482;28;20041;-66
2022/07/27 01:54:51;;;;;;;0.60;0.22;;;24.70;46.90;23.90;101495.00;;;;5025641;28;20042;-66
2022/07/27 01:57:37;;;;;;;0.63;0.40;;;24.70;46.90;23.90;101498.00;;;;5025469;28;20045;-66
2022/07/27 02:00:23;;;;;;;0.82;0.32;;;24.60;46.90;23.90;101494.00;;;;5027169;28;20497;-65
2022/07/27 02:03:09;;;;;;;0.52;0.30;;;24.60;46.90;23.90;101504.00;;;;5027317;28;20045;-65
2022/07/27 02:05:56;;;;;;;1.13;0.50;;;24.60;46.90;23.90;101504.00;;;;5010305;28;20487;-66
2022/07/27 02:08:42;;;;;;;0.30;0.30;;;24.60;46.90;23.90;101501.00;;;;5027368;28;20033;-65
2022/07/27 02:14:32;;;;;;;0.30;0.20;;;24.60;46.90;23.80;101506.00;;;;5023615;28;20045;-65
2022/07/27 02:17:18;;;;;;;0.82;0.30;;;24.60;46.90;23.80;101507.00;;;;5023479;28;20278;-66
2022/07/27 02:20:05;;;;;;;1.27;0.28;;;24.60;46.90;23.80;101499.00;;;;5022415;28;20045;-65
2022/07/27 02:22:51;;;;;;;1.65;0.55;;;24.60;46.90;23.80;101500.00;;;;5024272;28;20079;-66
2022/07/27 02:25:39;;;;;;;2.33;0.40;;;24.60;47.00;23.80;101500.00;;;;5025018;28;20438;-65
2022/07/27 02:28:26;;;;;;;1.13;0.20;;;24.60;46.90;23.80;101500.00;;;;5026692;28;20430;-65
2022/07/27 02:31:12;;;;;;;0.28;0.20;;;24.60;46.90;23.80;101502.00;;;;5023141;28;20578;-65
2022/07/27 02:33:58;;;;;;;1.80;0.40;;;24.60;47.00;23.80;101504.00;;;;5023250;28;20033;-65
2022/07/27 02:36:44;;;;;;;0.85;0.30;;;24.60;47.10;23.80;101502.00;;;;5025077;28;20041;-65
2022/07/27 02:39:30;;;;;;;0.60;0.45;;;24.60;47.10;23.80;101494.00;;;;5020272;28;20119;-65
2022/07/27 02:42:16;;;;;;;0.55;0.50;;;24.60;47.00;23.80;101500.00;;;;5021422;28;20483;-65
2022/07/27 02:45:03;;;;;;;2.15;0.35;;;24.60;47.00;23.80;101504.00;;;;5020153;28;20056;-65
2022/07/27 02:47:49;;;;;;;0.57;0.30;;;24.50;47.00;23.80;101503.00;;;;5022092;28;20121;-66
2022/07/27 02:50:35;;;;;;;0.95;0.50;;;24.50;46.90;23.70;101504.00;;;;5022735;28;20407;-65
2022/07/27 02:53:21;;;;;;;0.70;0.30;;;24.50;46.90;23.70;101505.00;;;;5022535;28;20108;-65
2022/07/27 02:56:07;;;;;;;0.52;0.32;;;24.60;47.00;23.70;101508.00;;;;5025734;28;20124;-65
2022/07/27 02:58:54;;;;;;;0.57;0.20;;;24.50;46.90;23.70;101513.00;;;;5034447;28;20082;-65
2022/07/27 03:01:40;;;;;;;1.17;0.30;;;24.50;46.90;23.70;101509.00;;;;5024637;28;20049;-65
2022/07/27 03:04:26;;;;;;;1.35;0.50;;;24.50;46.90;23.70;101504.00;;;;5023377;28;20041;-65
2022/07/27 03:07:12;;;;;;;1.13;0.30;;;24.50;46.90;23.70;101514.00;;;;5026026;28;20046;-66
2022/07/27 03:09:58;;;;;;;2.38;0.43;;;24.50;47.00;23.70;101516.00;;;;5023322;28;20037;-65
2022/07/27 03:12:44;;;;;;;0.50;0.30;;;24.50;47.00;23.70;101509.00;;;;5010375;28;20041;-65
2022/07/27 03:15:33;;;;;;;0.82;0.38;;;24.40;47.00;23.70;101510.00;;;;5025817;28;20115;-66
2022/07/27 03:18:19;;;;;;;0.40;0.30;;;24.40;47.00;23.70;101504.00;;;;5025987;28;20069;-65
2022/07/27 03:21:05;;;;;;;0.70;0.30;;;24.30;46.90;23.70;101511.00;;;;5023520;28;20060;-65
2022/07/27 03:23:51;;;;;;;1.13;0.35;;;24.40;47.00;23.70;101511.00;;;;5025204;28;20342;-65
2022/07/27 03:26:37;;;;;;;0.60;0.30;;;24.40;47.00;23.70;101506.00;;;;5025175;28;20115;-65
2022/07/27 03:29:23;;;;;;;1.30;0.40;;;24.40;46.90;23.60;101510.00;;;;5025444;28;20479;-65
2022/07/27 03:32:10;;;;;;;0.80;0.40;;;24.40;46.90;23.60;101507.00;;;;5029057;28;20042;-65
2022/07/27 03:34:56;;;;;;;0.50;0.40;;;24.40;47.00;23.60;101515.00;;;;5028897;28;20104;-65
2022/07/27 03:37:42;;;;;;;0.90;0.30;;;24.40;47.00;23.60;101511.00;;;;5026970;28;20079;-65
2022/07/27 03:40:31;;;;;;;1.30;0.60;;;24.40;47.00;23.60;101510.00;;;;5027453;28;20042;-65
2022/07/27 03:43:17;;;;;;;1.08;0.77;;;24.40;47.00;23.60;101512.00;;;;5026994;28;20447;-66
2022/07/27 03:46:03;;;;;;;0.82;0.30;;;24.40;47.00;23.60;101511.00;;;;5028256;28;20053;-66
2022/07/27 03:48:49;;;;;;;0.38;0.30;;;24.30;46.90;23.60;101514.00;;;;5029133;28;20056;-66
2022/07/27 03:51:35;;;;;;;1.30;0.30;;;24.20;46.90;23.60;101514.00;;;;5027368;28;20030;-66
2022/07/27 03:54:21;;;;;;;0.73;0.30;;;24.30;47.00;23.60;101512.00;;;;5026350;28;20044;-65
2022/07/27 03:57:07;;;;;;;0.43;0.32;;;24.20;47.00;23.60;101517.00;;;;5029465;28;20640;-66
2022/07/27 03:59:53;;;;;;;0.32;0.30;;;24.30;46.90;23.60;101517.00;;;;5028342;28;20045;-65
2022/07/27 04:02:39;;;;;;;1.40;0.28;;;24.30;47.00;23.60;101523.00;;;;5024870;28;20467;-65
2022/07/27 04:05:26;;;;;;;0.55;0.20;;;24.30;47.00;23.50;101523.00;;;;5029770;28;20037;-66
2022/07/27 04:08:12;;;;;;;0.30;0.30;;;24.30;47.10;23.50;101526.00;;;;5024676;28;20045;-65
2022/07/27 04:10:58;;;;;;;0.47;0.20;;;24.30;47.10;23.50;101517.00;;;;5023337;28;20072;-65
2022/07/27 04:13:45;;;;;;;0.65;0.40;;;24.30;47.00;23.50;101520.00;;;;5028786;28;20037;-66
2022/07/27 04:16:31;;;;;;;0.70;0.30;;;24.20;46.90;23.50;101522.00;;;;5028098;28;20048;-65
2022/07/27 04:19:17;;;;;;;0.68;0.30;;;24.20;46.90;23.50;101525.00;;;;5029051;28;20045;-66
2022/07/27 04:22:03;;;;;;;0.68;0.40;;;24.30;47.00;23.50;101523.00;;;;5030853;28;20033;-65
2022/07/27 04:24:49;;;;;;;1.27;0.30;;;24.20;46.80;23.50;101531.00;;;;5026266;28;20042;-65
2022/07/27 04:27:36;;;;;;;0.20;0.20;;;24.20;46.90;23.50;101533.00;;;;5025863;28;20115;-65
2022/07/27 04:30:22;;;;;;;0.43;0.30;;;24.20;46.90;23.50;101530.00;;;;5028990;28;20042;-66
2022/07/27 04:33:08;;;;;;;0.57;0.30;;;24.20;46.90;23.50;101542.00;;;;5040388;28;20037;-65
2022/07/27 04:35:55;;;;;;;0.90;0.40;;;24.20;46.90;23.50;101544.00;;;;5025916;28;20029;-66
2022/07/27 04:38:41;;;;;;;0.88;0.30;;;24.20;47.00;23.50;101543.00;;;;5026449;28;20073;-65
2022/07/27 04:41:27;;;;;;;0.90;0.47;;;24.20;47.00;23.50;101539.00;;;;5027467;28;20049;-65
2022/07/27 04:44:13;;;;;;;0.28;0.20;;;24.20;47.10;23.50;101539.00;;;;5026838;28;20056;-66
2022/07/27 04:46:59;;;;;;;0.60;0.30;;;24.20;47.00;23.50;101543.00;;;;5029665;28;20159;-65
2022/07/27 04:49:45;;;;;;;0.30;0.30;;;24.20;47.00;23.50;101542.00;;;;5027385;28;20041;-65
2022/07/27 04:52:31;;;;;;;1.15;0.35;;;24.20;47.00;23.50;101544.00;;;;5030194;28;20041;-65
2022/07/27 04:55:17;;;;;;;0.30;0.30;;;24.20;47.10;23.50;101549.00;;;;5028370;28;20188;-65
2022/07/27 04:58:03;;;;;;;0.60;0.38;;;24.20;47.00;23.50;101542.00;;;;5028444;28;20033;-66
2022/07/27 05:00:49;;;;;;;1.52;0.45;;;24.20;47.10;23.50;101545.00;;;;5024105;28;20060;-66
2022/07/27 05:03:35;;;;;;;1.00;0.77;;;24.20;47.10;23.50;101548.00;;;;5028202;28;20124;-66
2022/07/27 05:06:21;;;;;;;0.85;0.32;;;24.20;47.00;23.50;101547.00;;;;5026100;28;20548;-65
2022/07/27 05:09:07;;;;;;;1.25;0.40;;;24.20;47.10;23.50;101556.00;;;;5026541;28;20041;-65
2022/07/27 05:11:54;;;;;;;0.50;0.30;;;24.20;47.00;23.50;101565.00;;;;5024178;28;20467;-65
2022/07/27 05:14:40;;;;;;;0.73;0.30;;;24.20;47.00;23.50;101562.00;;;;5027122;28;20047;-65
2022/07/27 05:17:26;;;;;;;1.27;0.32;;;24.20;47.00;23.50;101561.00;;;;5025743;28;20045;-66
2022/07/27 05:20:12;;;;;;;0.50;0.38;;;24.20;47.00;23.50;101568.00;;;;5022535;28;20495;-65
2022/07/27 05:22:58;;;;;;;0.82;0.40;;;24.20;47.00;23.50;101561.00;;;;5024526;28;20471;-65
2022/07/27 05:25:44;;;;;;;0.47;0.32;;;24.30;47.00;23.50;101562.00;;;;5024490;28;20033;-65
2022/07/27 05:28:31;;;;;;;0.45;0.40;;;24.20;47.00;23.50;101565.00;;;;5028112;28;20045;-66
2022/07/27 05:31:17;;;;;;;1.45;0.47;;;24.20;46.90;23.50;101570.00;;;;5025671;28;20373;-65
2022/07/27 05:34:03;;;;;;;0.90;0.30;;;24.20;46.90;23.50;101562.00;;;;5025989;28;20045;-65
2022/07/27 05:36:49;;;;;;;0.50;0.40;;;24.30;47.00;23.50;101574.00;;;;5024458;28;20391;-65
2022/07/27 05:39:35;;;;;;;0.95;0.50;;;24.30;47.00;23.50;101581.00;;;;5021013;28;20029;-65
2022/07/27 05:42:21;;;;;;;0.52;0.47;;;24.30;46.90;23.50;101572.00;;;;5025507;28;20037;-66
2022/07/27 05:45:09;;;;;;;0.60;0.30;;;24.20;46.90;23.50;101580.00;;;;5025942;28;20045;-65
2022/07/27 05:47:57;;;;;;;1.52;0.40;;;24.30;47.00;23.50;101582.00;;;;5021434;28;20041;-65
2022/07/27 05:50:43;;;;;;;0.88;0.65;;;24.30;47.00;23.50;101580.00;;;;5022625;28;20061;-66
2022/07/27 05:53:29;;;;;;;0.80;0.30;;;24.30;47.00;23.50;101583.00;;;;5024751;28;20538;-65
2022/07/27 05:56:15;;;;;;;1.38;0.43;;;24.30;47.00;23.50;101584.00;;;;5028278;28;20064;-65
2022/07/27 05:59:02;;;;;;;0.70;0.30;;;24.30;47.00;23.50;101584.00;;;;5026604;28;20636;-65
2022/07/27 06:01:48;;;;;;;0.50;0.30;;;24.30;46.90;23.50;101594.00;;;;5020715;28;20041;-65
2022/07/27 06:04:34;;;;;;;1.35;0.47;;;24.30;46.90;23.50;101591.00;;;;5025228;28;20049;-66
2022/07/27 06:10:27;;;;;;;0.88;0.50;;;24.20;47.00;23.50;101593.00;;;;5020914;28;20068;-66
2022/07/27 06:13:13;;;;;;;2.70;0.50;;;24.30;47.00;23.50;101600.00;;;;5027349;28;20099;-66
2022/07/27 06:15:59;;;;;;;1.17;0.50;;;24.30;47.00;23.50;101600.00;;;;5024137;28;20033;-65
2022/07/27 06:18:45;;;;;;;1.10;0.50;;;24.30;47.10;23.50;101601.00;;;;5024722;28;20041;-66
2022/07/27 06:21:31;;;;;;;2.85;0.43;;;24.40;47.20;23.50;101602.00;;;;5022641;28;20121;-66
2022/07/27 06:24:19;;;;;;;1.42;0.50;;;24.40;47.20;23.50;101600.00;;;;5027810;28;20056;-65
2022/07/27 06:27:05;;;;;;;1.23;0.40;;;24.40;47.20;23.50;101604.00;;;;5025635;28;20112;-66
2022/07/27 06:29:51;;;;;;;1.45;0.65;;;24.30;47.10;23.50;101601.00;;;;5022901;28;20500;-66
2022/07/27 06:32:37;;;;;;;2.78;0.70;;;24.40;47.20;23.50;101597.00;;;;5024276;28;20150;-65
2022/07/27 06:35:23;;;;;;;1.25;0.65;;;24.40;47.20;23.50;101607.00;;;;5025392;28;20061;-66
2022/07/27 06:38:09;;;;;;;0.95;0.50;;;24.40;47.20;23.60;101605.00;;;;5024365;28;20499;-66
2022/07/27 06:40:55;;;;;;;0.80;0.52;;;24.40;47.20;23.60;101606.00;;;;5023420;28;20037;-66
2022/07/27 06:43:41;;;;;;;1.60;0.77;;;24.40;47.20;23.60;101608.00;;;;5023444;28;20087;-66
2022/07/27 06:46:27;;;;;;;1.38;0.60;;;24.40;47.20;23.60;101613.00;;;;5025443;28;20103;-66
2022/07/27 06:49:13;;;;;;;1.10;0.60;;;24.40;47.10;23.60;101615.00;;;;5021302;28;20057;-65
2022/07/27 06:51:59;;;;;;;2.63;0.68;;;24.40;47.20;23.60;101609.00;;;;5021315;28;20064;-66
2022/07/27 06:54:46;;;;;;;1.27;0.68;;;24.50;47.10;23.60;101613.00;;;;5025084;28;20041;-66
2022/07/27 06:57:32;;;;;;;3.65;0.85;;;24.40;47.10;23.60;101607.00;;;;5027380;28;20052;-66
2022/07/27 07:00:18;;;;;;;1.88;0.60;;;24.40;47.10;23.60;101618.00;;;;5022870;28;20119;-66
2022/07/27 07:03:04;;;;;;;2.22;0.80;;;24.50;47.00;23.60;101605.00;;;;5024745;28;20042;-66
2022/07/27 07:05:50;;;;;;;1.83;0.68;;;24.50;47.00;23.60;101607.00;;;;5026437;28;20054;-65
2022/07/27 07:08:36;;;;;;;2.03;0.82;;;24.50;47.10;23.60;101617.00;;;;5026658;28;20637;-65
2022/07/27 07:11:22;;;;;;;2.75;0.70;;;24.50;47.00;23.60;101607.00;;;;5027636;28;20373;-65
2022/07/27 07:14:09;;;;;;;1.65;0.60;;;24.50;47.00;23.60;101613.00;;;;5025690;28;20099;-65
2022/07/27 07:16:55;;;;;;;3.50;0.60;;;24.40;47.00;23.60;101613.00;;;;5029848;28;20040;-66
2022/07/27 07:19:41;;;;;;;1.98;0.50;;;24.50;47.00;23.60;101608.00;;;;5019651;28;20045;-65
2022/07/27 07:22:27;;;;;;;2.05;0.60;;;24.50;47.00;23.60;101629.00;;;;5027980;28;20037;-65
2022/07/27 07:25:14;;;;;;;1.83;0.60;;;24.50;46.90;23.60;101618.00;;;;5027257;28;20124;-65
2022/07/27 07:28:00;;;;;;;5.10;0.93;;;24.50;46.90;23.60;101609.00;;;;5029028;28;20128;-65
2022/07/27 07:30:46;;;;;;;2.40;0.70;;;24.50;47.00;23.60;101621.00;;;;5026615;28;20037;-65
2022/07/27 07:33:32;;;;;;;1.52;0.73;;;24.50;46.80;23.60;101626.00;;;;5056418;28;20037;-66
2022/07/27 07:36:18;;;;;;;2.63;0.90;;;24.50;46.90;23.60;101621.00;;;;5026932;28;20067;-65
2022/07/27 07:39:04;;;;;;;1.30;0.80;;;24.50;46.90;23.60;101621.00;;;;5028393;28;20053;-65
2022/07/27 07:41:52;;;;;;;1.17;0.75;;;24.50;46.80;23.60;101625.00;;;;5028564;28;20052;-65
2022/07/27 07:44:38;;;;;;;;;;;24.60;47.00;23.60;101609.00;;;;5026724;28;20045;-65
2022/07/27 07:47:24;;;;;;;1.30;0.80;;;24.50;47.00;23.60;101608.00;;;;5031390;28;19924;-65
2022/07/27 07:50:10;;;;;;;2.63;0.73;;;24.50;46.80;23.60;101613.00;;;;5027845;28;20550;-65
2022/07/27 07:52:56;;;;;;;1.98;0.80;;;24.60;46.80;23.60;101617.00;;;;5025371;28;20510;-65
2022/07/27 07:55:42;;;;;;;2.03;0.90;;;24.60;46.70;23.60;101608.00;;;;5026284;28;20056;-65
2022/07/27 07:58:28;;;;;;;1.58;0.70;;;24.50;46.70;23.60;101613.00;;;;5027925;28;20130;-66
2022/07/27 08:01:14;;;;;;;2.42;1.15;;;24.50;46.60;23.60;101608.00;;;;5030267;28;20512;-65
2022/07/27 08:04:00;;;;;;;2.42;1.00;;;24.60;46.70;23.60;101603.00;;;;5026537;28;20413;-65
2022/07/27 08:06:46;;;;;;;2.17;0.80;;;24.40;46.70;23.60;101612.00;;;;5027665;28;20052;-65
2022/07/27 08:09:32;;;;;;;1.58;0.93;;;24.50;46.80;23.60;101617.00;;;;5024378;28;20617;-66
2022/07/27 08:12:18;;;;;;;1.45;0.82;;;24.50;46.70;23.60;101619.00;;;;5029903;28;20045;-65
2022/07/27 08:15:08;;;;;;;2.55;0.82;;;24.50;46.70;23.60;101623.00;;;;5023226;28;20289;-65
2022/07/27 08:17:54;;;;;;;2.85;1.08;;;24.50;46.70;23.70;101617.00;;;;5011893;28;20124;-66
2022/07/27 08:20:40;;;;;;;3.03;1.08;;;24.50;46.70;23.70;101617.00;;;;5027771;28;20041;-65
2022/07/27 08:23:26;;;;;;;1.48;0.98;;;24.60;46.70;23.70;101613.00;;;;5030162;28;20215;-66
2022/07/27 08:26:12;;;;;;;1.73;0.85;;;24.50;46.70;23.70;101624.00;;;;5028453;28;20079;-66
2022/07/27 08:28:58;;;;;;;1.05;0.63;;;24.50;46.50;23.70;101620.00;;;;5023671;28;20103;-66
2022/07/27 08:31:44;;;;;;;1.58;0.80;;;24.60;46.50;23.70;101624.00;;;;5029153;28;20029;-65
2022/07/27 08:34:30;;;;;;;2.60;1.20;;;24.60;46.30;23.70;101626.00;;;;5027674;28;20072;-65
2022/07/27 08:37:16;;;;;;;2.00;0.70;;;24.60;46.20;23.60;101628.00;;;;5026573;28;20053;-65
2022/07/27 08:40:02;;;;;;;1.33;0.65;;;24.60;46.30;23.70;101630.00;;;;5027518;28;20041;-65
2022/07/27 08:42:49;;;;;;;1.17;0.80;;;24.60;46.30;23.70;101628.00;;;;5023731;28;20061;-65
2022/07/27 08:45:36;;;;;;;2.78;0.80;;;24.60;46.30;23.70;101626.00;;;;5028027;28;20033;-65
2022/07/27 08:48:29;;;;;;;2.75;0.90;;;24.60;46.20;23.70;101626.00;;;;5026432;28;20064;-65
2022/07/27 08:51:15;;;;;;;2.20;0.77;;;24.60;46.20;23.70;101631.00;;;;5016826;28;20077;-64
2022/07/27 08:54:01;;;;;;;3.67;0.55;;;24.60;46.10;23.70;101626.00;;;;5027276;28;20037;-68
2022/07/27 08:56:47;;;;;;;2.35;0.75;;;24.60;46.20;23.70;101636.00;;;;4997557;28;20037;-64
2022/07/27 08:59:33;;;;;;;2.53;0.60;;;24.60;46.20;23.70;101628.00;;;;5027022;28;20042;-63
2022/07/27 09:02:20;;;;;;;2.90;0.90;;;24.60;46.20;23.70;101629.00;;;;5030553;28;20042;-63
2022/07/27 09:05:08;;;;;;;1.40;0.80;;;24.60;46.20;23.70;101631.00;;;;5024441;28;20037;-64
2022/07/27 09:07:54;;;;;;;2.22;0.90;;;24.60;46.20;23.70;101628.00;;;;5026400;28;20076;-63
2022/07/27 09:10:40;;;;;;;1.05;0.50;;;24.70;46.20;23.70;101625.00;;;;5033150;28;20442;-66
2022/07/27 09:13:30;;;;;;;1.10;0.70;;;24.60;46.10;23.70;101625.00;;;;5026931;28;20041;-66
2022/07/27 09:16:16;;;;;;;1.60;0.70;;;24.60;46.00;23.70;101628.00;;;;5026268;28;20046;-66
2022/07/27 09:19:06;;;;;;;2.83;0.85;;;24.60;46.00;23.70;101631.00;;;;5028261;28;20061;-66
2022/07/27 09:21:52;;;;;;;1.42;0.50;;;24.60;45.90;23.70;101629.00;;;;5051484;28;20052;-65
2022/07/27 09:24:41;;;;;;;2.42;0.90;;;24.60;46.00;23.70;101628.00;;;;5025759;28;20056;-66
2022/07/27 09:27:31;;;;;;;1.98;0.70;;;24.60;45.90;23.70;101622.00;;;;4998684;28;20542;-66
2022/07/27 09:30:17;;;;;;;2.25;0.80;;;24.60;45.80;23.70;101627.00;;;;5024296;28;20080;-65
2022/07/27 09:33:05;;;;;;;1.80;0.53;;;24.60;45.80;23.70;101622.00;;;;5024304;28;20384;-65
2022/07/27 09:35:57;;;;;;;2.10;0.63;;;24.60;45.70;23.70;101627.00;;;;5011284;28;20036;-66
2022/07/27 09:38:52;;;;;;;2.05;0.50;;;24.60;45.60;23.70;101621.00;;;;5025776;28;20037;-66
2022/07/27 09:41:47;;;;;;;2.50;0.50;;;24.60;45.70;23.70;101628.00;;;;5026453;28;20517;-65
2022/07/27 09:44:41;;;;;;;2.08;0.55;;;24.60;45.70;23.70;101632.00;;;;5013423;28;20040;-65
2022/07/27 09:47:28;;;;;;;2.13;0.60;;;24.70;45.70;23.70;101627.00;;;;5025636;28;20041;-65
2022/07/27 09:50:19;;;;;;;1.52;0.60;;;24.70;45.70;23.70;101619.00;;;;5026880;28;20041;-65
2022/07/27 09:53:17;;;;;;;2.95;0.60;;;24.60;45.60;23.70;101623.00;;;;5026441;28;20041;-65
2022/07/27 09:56:09;;;;;;;1.23;0.60;;;24.70;45.50;23.70;101621.00;;;;5026743;28;20113;-65
2022/07/27 09:58:59;;;;;;;1.33;0.50;;;24.70;45.50;23.70;101623.00;;;;5024307;28;20045;-66
2022/07/27 10:01:45;;;;;;;1.00;0.60;;;24.70;45.60;23.70;101632.00;;;;5020305;28;20557;-65
2022/07/27 10:04:32;;;;;;;3.08;0.70;;;24.70;45.40;23.70;101631.00;;;;5038824;28;20045;-65
2022/07/27 10:07:18;;;;;;;1.30;0.57;;;24.70;45.40;23.70;101629.00;;;;5024004;28;20042;-65
2022/07/27 10:10:05;;;;;;;1.80;0.52;;;24.70;45.30;23.70;101629.00;;;;5023102;28;20046;-66
2022/07/27 10:12:51;;;;;;;1.85;0.40;;;24.70;45.30;23.70;101628.00;;;;5024404;28;20124;-66
2022/07/27 10:15:40;;;;;;;1.35;0.60;;;24.70;45.40;23.70;101626.00;;;;5022462;28;20045;-66
2022/07/27 10:18:55;;;;;;;1.40;0.50;;;24.70;45.30;23.80;101629.00;;;;5011987;28;20327;-66
2022/07/27 10:21:44;;;;;;;1.38;0.50;;;24.70;45.20;23.70;101626.00;;;;5024133;28;20120;-66
2022/07/27 10:24:35;;;;;;;1.55;0.70;;;24.70;45.10;23.70;101630.00;;;;5024138;28;20479;-66
2022/07/27 10:27:26;;;;;;;3.20;0.73;;;24.70;45.20;23.70;101631.00;;;;5025774;28;20041;-65
2022/07/27 10:30:16;;;;;;;3.88;0.73;;;24.70;45.10;23.80;101634.00;;;;5020814;28;20128;-65
2022/07/27 10:33:36;;;;;;;0.70;0.40;;;24.70;45.10;23.80;101641.00;;;;5022369;28;20040;-66
2022/07/27 10:36:22;;;;;;;1.38;0.45;;;24.70;45.00;23.80;101641.00;;;;5021521;28;20285;-66
2022/07/27 10:39:08;;;;;;;2.40;0.50;;;24.70;45.10;23.80;101640.00;;;;5024976;28;20423;-66
2022/07/27 10:42:16;;;;;;;0.52;0.40;;;24.70;45.00;23.80;101644.00;;;;5026120;28;20048;-67
2022/07/27 10:45:13;;;;;;;2.30;0.82;;;24.70;45.00;23.70;101642.00;;;;5039843;28;20450;-66
2022/07/27 10:47:59;;;;;;;2.67;0.80;;;24.70;44.90;23.80;101651.00;;;;5027110;28;20049;-66
2022/07/27 10:50:46;;;;;;;4.97;0.73;;;24.70;45.00;23.80;101646.00;;;;4999698;28;20045;-66
2022/07/27 10:53:41;;;;;;;1.80;0.50;;;24.80;45.00;23.80;101637.00;;;;5042686;28;20041;-66
2022/07/27 10:56:44;;;;;;;1.33;0.52;;;24.80;44.90;23.80;101643.00;;;;5028551;28;20033;-66
2022/07/27 10:59:41;;;;;;;0.55;0.43;;;24.70;44.80;23.70;101638.00;;;;5029720;28;20045;-66
2022/07/27 11:02:41;;;;;;;1.98;0.52;;;24.70;44.90;23.70;101640.00;;;;5030375;28;20041;-66
2022/07/27 11:05:27;;;;;;;2.50;0.50;;;24.80;44.90;23.80;101641.00;;;;5028565;28;20133;-66
2022/07/27 11:08:13;;;;;;;1.35;0.47;;;24.70;44.90;23.80;101644.00;;;;5015817;28;20598;-66
2022/07/27 11:10:59;;;;;;;1.88;0.50;;;24.70;44.90;23.80;101651.00;;;;5028464;28;20042;-67
2022/07/27 11:13:46;;;;;;;1.38;0.75;;;24.70;45.00;23.80;101636.00;;;;5029170;28;20037;-66
2022/07/27 11:16:32;;;;;;;1.92;0.70;;;24.80;44.90;23.80;101647.00;;;;5029669;28;20399;-66
2022/07/27 11:19:18;;;;;;;1.85;0.40;;;24.80;44.90;23.80;101641.00;;;;5027291;28;20041;-66
2022/07/27 11:22:04;;;;;;;2.72;0.75;;;24.70;44.80;23.80;101636.00;;;;5027469;28;20050;-66
2022/07/27 11:24:50;;;;;;;2.25;0.63;;;24.80;44.80;23.80;101641.00;;;;5027900;28;20041;-66
2022/07/27 11:27:49;;;;;;;1.65;0.55;;;24.70;44.70;23.80;101641.00;;;;5026535;28;20037;-69
2022/07/27 11:30:35;;;;;;;1.08;0.68;;;24.70;44.80;23.80;101639.00;;;;5027449;28;20041;-66
2022/07/27 11:33:21;;;;;;;1.30;0.38;;;24.80;44.80;23.80;101638.00;;;;5027498;28;20099;-67
2022/07/27 11:36:07;;;;;;;1.73;0.50;;;24.80;44.70;23.80;101638.00;;;;5039442;28;20226;-67
2022/07/27 11:38:53;;;;;;;3.33;0.57;;;24.80;44.60;23.80;101634.00;;;;5027895;28;20049;-66
2022/07/27 11:41:40;;;;;;;1.75;0.40;;;24.80;44.60;23.80;101629.00;;;;5025600;28;20060;-67
2022/07/27 11:44:27;;;;;;;1.07;0.30;;;24.80;44.60;23.80;101634.00;;;;5025946;28;20049;-67
2022/07/27 11:47:17;;;;;;;2.08;0.45;;;24.80;44.50;23.80;101630.00;;;;5026920;28;20071;-66
2022/07/27 11:50:10;;;;;;;3.50;0.70;;;24.80;44.50;23.80;101622.00;;;;5025139;28;20038;-66
2022/07/27 11:52:56;;;;;;;1.35;0.47;;;24.80;44.50;23.80;101616.00;;;;5027968;28;20037;-66
2022/07/27 11:55:48;;;;;;;1.93;0.47;;;24.80;44.60;23.80;101614.00;;;;5028160;28;20045;-66
2022/07/27 11:59:09;;;;;;;1.75;0.63;;;24.80;44.40;23.80;101619.00;;;;5027710;28;20056;-66
2022/07/27 12:02:00;;;;;;;2.15;0.38;;;24.80;44.60;23.80;101615.00;;;;5022322;28;20043;-66
2022/07/27 12:04:48;;;;;;;1.00;0.40;;;24.80;44.20;23.80;101615.00;;;;5024846;28;20048;-66
2022/07/27 12:07:35;;;;;;;1.85;0.40;;;24.80;44.10;23.80;101612.00;;;;5014944;28;20073;-66
2022/07/27 12:10:21;;;;;;;3.17;0.65;;;24.80;44.80;23.80;101603.00;;;;5026820;28;20043;-66
2022/07/27 12:13:07;;;;;;;1.25;0.65;;;24.80;44.10;23.80;101612.00;;;;5026949;28;20045;-66
2022/07/27 12:15:57;;;;;;;1.55;0.50;;;24.80;44.10;23.80;101607.00;;;;5011605;28;20046;-66
2022/07/27 12:18:43;;;;;;;1.90;0.30;;;24.80;44.00;23.90;101609.00;;;;5039581;28;20478;-66
2022/07/27 12:21:29;;;;;;;1.48;0.30;;;24.80;43.90;23.90;101603.00;;;;5027125;28;20483;-66